Time;durP1;ratioP1;P1;durP2;ratioP2;P2;SDS_P1;SDS_P2;PMS_P1;PMS_P2;Temp;Humidity;BMP_temperature;BMP_pressure;BME280_temperature;BME280_humidity;BME280_pressure;Samples;Min_cycle;Max_cycle;Signal;HPM_P1;HPM_P2
2022/08/10 00:01:52;;;;;;;33.27;31.43;;;;;;;17.96;100.00;102750.19;1944902;74;24749;-78
2022/08/10 00:04:23;;;;;;;34.43;32.23;;;;;;;17.80;100.00;102747.14;1945254;74;26637;-78
2022/08/10 00:06:55;;;;;;;36.77;34.47;;;;;;;17.92;100.00;102741.20;1944932;73;24232;-78
2022/08/10 00:09:25;;;;;;;38.47;36.27;;;;;;;17.52;100.00;102743.02;1945109;73;24620;-77
2022/08/10 00:11:56;;;;;;;38.90;36.80;;;;;;;17.28;100.00;102741.98;1945074;73;24463;-77
2022/08/10 00:14:26;;;;;;;37.10;34.80;;;;;;;17.31;100.00;102738.59;1945019;73;24161;-78
2022/08/10 00:16:56;;;;;;;37.33;35.23;;;;;;;17.46;100.00;102739.94;1945052;74;24184;-78
2022/08/10 00:19:26;;;;;;;36.53;34.53;;;;;;;17.57;100.00;102741.61;1944529;73;24730;-77
2022/08/10 00:21:56;;;;;;;37.33;35.13;;;;;;;17.84;100.00;102733.38;1944336;73;24588;-78
2022/08/10 00:24:27;;;;;;;37.87;35.77;;;;;;;17.51;100.00;102732.91;1944345;73;24556;-77
2022/08/10 00:26:57;;;;;;;37.70;35.70;;;;;;;17.37;100.00;102733.22;1944362;74;24649;-77
2022/08/10 00:29:27;;;;;;;37.50;35.40;;;;;;;17.31;100.00;102730.16;1944342;73;24199;-77
2022/08/10 00:31:57;;;;;;;38.70;36.47;;;;;;;17.39;100.00;102731.54;1944285;73;24407;-78
2022/08/10 00:34:28;;;;;;;37.80;35.70;;;;;;;17.34;100.00;102728.73;1944162;74;24207;-77
2022/08/10 00:36:59;;;;;;;36.40;34.50;;;;;;;17.34;100.00;102731.55;1944367;73;24770;-77
2022/08/10 00:39:30;;;;;;;39.00;36.80;;;;;;;17.45;100.00;102729.84;1944267;74;24169;-78
2022/08/10 00:42:00;;;;;;;41.23;38.93;;;;;;;17.34;100.00;102731.55;1944388;73;24654;-76
2022/08/10 00:44:30;;;;;;;42.57;40.17;;;;;;;17.26;100.00;102727.36;1944392;74;24181;-77
2022/08/10 00:47:00;;;;;;;43.07;40.67;;;;;;;17.19;100.00;102728.23;1944314;73;26771;-77
2022/08/10 00:49:31;;;;;;;46.40;43.90;;;;;;;17.06;100.00;102728.25;1944275;73;24188;-77
2022/08/10 00:52:01;;;;;;;45.50;43.00;;;;;;;17.03;100.00;102731.61;1944231;74;24156;-77
2022/08/10 00:54:32;;;;;;;42.90;40.57;;;;;;;17.03;100.00;102719.56;1944415;73;24168;-78
2022/08/10 00:57:03;;;;;;;43.47;41.00;;;;;;;17.57;100.00;102723.34;1944401;73;24165;-77
2022/08/10 00:59:35;;;;;;;44.87;42.53;;;;;;;17.45;100.00;102722.82;1944307;73;24178;-78
2022/08/10 01:05:21;;;;;;;42.27;39.97;;;;;;;17.17;100.00;102715.86;2008657;71;30898;-74
2022/08/10 01:08:10;;;;;;;44.50;42.10;;;;;;;17.07;100.00;102718.69;1975284;72;26316;-74
2022/08/10 01:13:44;;;;;;;44.10;41.60;;;;;;;17.05;100.00;102717.30;2059290;69;26643;-75
2022/08/10 01:16:17;;;;;;;47.00;44.40;;;;;;;17.06;100.00;102715.62;2025015;71;24267;-76
2022/08/10 01:18:51;;;;;;;45.70;42.93;;;;;;;16.98;100.00;102720.41;1926724;74;24189;-75
2022/08/10 01:21:38;;;;;;;46.50;43.93;;;;;;;17.24;100.00;102717.80;1949350;73;24172;-75
2022/08/10 01:24:39;;;;;;;47.80;45.07;;;;;;;17.23;100.00;102712.48;1948689;73;24180;-75
2022/08/10 01:27:27;;;;;;;44.60;42.00;;;;;;;16.98;100.00;102709.73;1939835;73;26788;-75
2022/08/10 01:30:04;;;;;;;46.60;43.90;;;;;;;16.99;100.00;102713.64;1949216;73;24156;-75
2022/08/10 01:32:39;;;;;;;48.50;45.80;;;;;;;16.94;100.00;102711.43;1949097;73;24195;-76
2022/08/10 01:35:15;;;;;;;50.13;47.23;;;;;;;16.94;100.00;102711.43;1949463;73;26241;-75
2022/08/10 01:37:49;;;;;;;52.07;49.13;;;;;;;16.86;100.00;102707.80;1949349;73;26240;-76
2022/08/10 01:40:24;;;;;;;52.63;49.83;;;;;;;16.81;100.00;102700.22;1949205;73;26236;-75
2022/08/10 01:42:58;;;;;;;52.40;49.60;;;;;;;16.81;100.00;102700.22;1949433;73;24159;-75
2022/08/10 01:45:30;;;;;;;53.50;50.60;;;;;;;16.75;100.00;102699.38;1949485;73;24619;-75
2022/08/10 01:50:54;;;;;;;56.97;53.77;;;;;;;16.75;100.00;102690.11;1946041;73;26210;-76
2022/08/10 01:56:42;;;;;;;59.67;56.23;;;;;;;16.70;100.00;102690.95;2001714;71;32877;-75
2022/08/10 02:02:31;;;;;;;60.57;57.17;;;;;;;16.62;100.00;102687.31;2010382;71;33418;-74
2022/08/10 02:08:04;;;;;;;61.80;58.40;;;;;;;16.62;100.00;102682.25;2060628;69;28062;-75
2022/08/10 02:10:36;;;;;;;63.10;59.70;;;;;;;16.52;100.00;102690.63;1944682;73;26230;-75
2022/08/10 02:13:08;;;;;;;64.73;61.27;;;;;;;16.29;100.00;102694.30;2015958;71;26321;-75
2022/08/10 02:15:42;;;;;;;63.80;60.20;;;;;;;16.21;100.00;102691.20;2016120;71;26250;-75
2022/08/10 02:18:13;;;;;;;61.70;58.00;;;;;;;16.17;100.00;102697.89;2016019;71;26221;-75
2022/08/10 02:20:47;;;;;;;60.20;56.53;;;;;;;16.17;100.00;102697.89;2015979;71;26274;-74
2022/08/10 02:23:21;;;;;;;59.43;55.63;;;;;;;16.14;100.00;102707.42;1937728;74;26707;-75
2022/08/10 02:25:54;;;;;;;61.17;57.40;;;;;;;16.09;100.00;102706.86;1937564;74;26293;-75
2022/08/10 02:28:26;;;;;;;61.03;57.33;;;;;;;15.91;100.00;102713.00;2015876;71;26230;-75
2022/08/10 02:31:00;;;;;;;61.47;57.77;;;;;;;15.79;100.00;102710.97;2016044;71;24647;-75
2022/08/10 02:33:32;;;;;;;60.40;56.70;;;;;;;15.79;100.00;102710.97;2016011;71;26254;-75
2022/08/10 02:36:04;;;;;;;63.13;59.43;;;;;;;15.80;100.00;102706.51;2016154;71;26242;-75
2022/08/10 02:38:38;;;;;;;62.93;58.87;;;;;;;15.87;100.00;102712.69;2016169;71;26376;-75
2022/08/10 02:41:14;;;;;;;64.00;60.30;;;;;;;16.09;100.00;102711.65;2016052;71;26168;-76
2022/08/10 02:43:49;;;;;;;63.63;59.73;;;;;;;16.06;100.00;102701.81;2016020;71;26268;-75
2022/08/10 02:46:22;;;;;;;65.20;61.43;;;;;;;16.01;100.00;102700.39;2015969;71;26170;-75
2022/08/10 02:51:56;;;;;;;62.40;58.70;;;;;;;16.07;100.00;102692.84;2059396;69;28047;-76
2022/08/10 02:54:30;;;;;;;63.60;59.60;;;;;;;15.99;100.00;102701.80;2025343;71;26338;-75
2022/08/10 02:57:04;;;;;;;65.17;61.17;;;;;;;15.93;100.00;102694.78;2025280;71;26301;-75
2022/08/10 02:59:38;;;;;;;64.10;60.43;;;;;;;15.99;100.00;102690.03;1926635;74;26708;-75
2022/08/10 03:02:11;;;;;;;64.43;60.53;;;;;;;16.19;100.00;102688.66;1949170;73;26240;-75
2022/08/10 03:04:46;;;;;;;64.33;60.63;;;;;;;16.12;100.00;102683.05;1949172;73;26250;-75
2022/08/10 03:07:20;;;;;;;63.07;59.27;;;;;;;16.01;100.00;102682.73;1949089;73;26216;-76
2022/08/10 03:09:52;;;;;;;64.70;60.40;;;;;;;15.98;100.00;102693.10;1949274;73;26314;-75
2022/08/10 03:12:24;;;;;;;62.43;58.73;;;;;;;15.84;100.00;102679.61;1949267;73;26297;-74
2022/08/10 03:14:56;;;;;;;63.47;59.60;;;;;;;15.78;100.00;102689.14;1949274;73;26179;-75
2022/08/10 03:17:29;;;;;;;61.23;57.63;;;;;;;15.73;100.00;102683.52;1949295;73;26273;-75
2022/08/10 03:20:01;;;;;;;63.90;60.20;;;;;;;15.76;100.00;102674.55;1949172;73;26240;-75
2022/08/10 03:22:34;;;;;;;64.60;60.57;;;;;;;15.74;100.00;102668.39;1949303;73;24572;-75
2022/08/10 03:25:06;;;;;;;63.90;60.00;;;;;;;15.69;100.00;102671.73;1949223;73;26886;-75
2022/08/10 03:27:38;;;;;;;63.40;59.70;;;;;;;15.75;100.00;102670.05;1949300;73;26916;-75
2022/08/10 03:30:11;;;;;;;60.77;57.07;;;;;;;15.73;100.00;102665.86;1948861;73;26321;-75
2022/08/10 03:32:42;;;;;;;65.33;61.43;;;;;;;15.71;100.00;102669.48;1949010;73;26630;-75
2022/08/10 03:35:15;;;;;;;66.33;62.43;;;;;;;15.73;100.00;102670.06;1948936;73;26211;-75
2022/08/10 03:37:45;;;;;;;65.53;61.43;;;;;;;15.79;100.00;102666.98;1949099;73;26208;-76
2022/08/10 03:40:15;;;;;;;63.17;59.27;;;;;;;15.82;100.00;102672.05;1949091;73;26177;-75
2022/08/10 03:42:48;;;;;;;65.23;61.23;;;;;;;15.81;100.00;102673.72;1949045;73;26296;-74
2022/08/10 03:45:18;;;;;;;66.47;62.47;;;;;;;15.83;100.00;102676.52;1948965;73;26294;-75
2022/08/10 03:47:50;;;;;;;63.93;59.83;;;;;;;15.82;100.00;102676.27;1948865;73;26314;-74
2022/08/10 03:50:23;;;;;;;63.43;59.50;;;;;;;15.83;100.00;102667.30;1946041;73;26289;-75
2022/08/10 03:52:54;;;;;;;64.77;60.77;;;;;;;15.82;100.00;102670.66;1944156;74;26764;-74
2022/08/10 03:55:26;;;;;;;63.47;59.43;;;;;;;15.89;100.00;102668.98;1944389;74;26233;-75
2022/08/10 03:57:56;;;;;;;64.53;60.27;;;;;;;15.80;100.00;102665.88;1983088;72;26768;-78
2022/08/10 04:03:25;;;;;;;65.00;60.70;;;;;;;15.71;100.00;102663.87;2058214;69;28502;-73
2022/08/10 04:05:57;;;;;;;64.27;60.10;;;;;;;15.82;100.00;102661.41;1980083;72;26157;-73
2022/08/10 04:08:27;;;;;;;64.23;60.07;;;;;;;15.74;100.00;102660.55;1979972;72;26620;-72
2022/08/10 04:10:58;;;;;;;64.63;60.43;;;;;;;15.73;100.00;102661.09;1980069;72;26881;-72
2022/08/10 04:13:28;;;;;;;64.73;60.53;;;;;;;15.68;100.00;102665.84;1980088;72;26280;-73
2022/08/10 04:15:58;;;;;;;63.97;59.97;;;;;;;15.59;100.00;102664.69;1979937;72;26190;-73
2022/08/10 04:18:28;;;;;;;62.13;58.17;;;;;;;15.45;100.00;102661.51;1979947;72;27328;-72
2022/08/10 04:21:03;;;;;;;62.13;58.13;;;;;;;15.50;100.00;102662.97;1980018;72;26685;-71
2022/08/10 04:23:37;;;;;;;62.20;58.07;;;;;;;15.54;100.00;102664.66;1980058;72;26219;-73
2022/08/10 04:26:07;;;;;;;62.17;58.27;;;;;;;15.54;100.00;102670.26;1944988;74;26176;-74
2022/08/10 04:28:39;;;;;;;61.60;57.60;;;;;;;15.43;100.00;102663.20;1944977;73;26690;-73
2022/08/10 04:31:12;;;;;;;62.03;57.80;;;;;;;15.51;100.00;102658.21;1945070;74;26771;-73
2022/08/10 04:33:45;;;;;;;64.17;60.07;;;;;;;15.46;100.00;102657.05;1980109;72;26760;-73
2022/08/10 04:36:17;;;;;;;62.97;58.87;;;;;;;15.46;100.00;102661.80;1980174;72;26217;-73
2022/08/10 04:38:50;;;;;;;61.03;56.83;;;;;;;15.52;100.00;102662.70;1980047;72;26664;-73
2022/08/10 04:41:21;;;;;;;63.43;59.27;;;;;;;15.49;100.00;102663.48;1979895;72;26694;-73
2022/08/10 04:43:51;;;;;;;63.90;59.73;;;;;;;15.59;100.00;102661.88;1979897;72;27379;-73
2022/08/10 04:46:21;;;;;;;63.53;59.53;;;;;;;15.54;100.00;102666.91;1979942;72;26174;-73
2022/08/10 04:48:51;;;;;;;61.77;57.83;;;;;;;15.51;100.00;102668.02;1957768;72;26819;-72
2022/08/10 04:51:21;;;;;;;59.93;56.03;;;;;;;15.38;100.00;102662.33;1909576;75;26235;-73
2022/08/10 04:53:52;;;;;;;61.10;57.10;;;;;;;15.37;100.00;102660.64;1892810;76;26185;-73
2022/08/10 04:56:23;;;;;;;63.87;59.57;;;;;;;15.47;100.00;102664.89;1944885;74;26265;-73
2022/08/10 04:58:53;;;;;;;62.90;58.70;;;;;;;15.45;100.00;102674.11;1945041;74;26226;-73
2022/08/10 05:01:23;;;;;;;64.27;59.87;;;;;;;15.51;100.00;102678.67;1944996;73;26748;-73
2022/08/10 05:03:54;;;;;;;63.27;59.03;;;;;;;15.53;100.00;102681.20;1945012;73;26814;-73
2022/08/10 05:06:24;;;;;;;63.20;59.13;;;;;;;15.53;100.00;102678.41;1945030;73;26227;-73
2022/08/10 05:08:55;;;;;;;64.03;59.97;;;;;;;15.50;100.00;102681.17;1945022;73;26271;-73
2022/08/10 05:14:23;;;;;;;60.60;56.23;;;;;;;15.63;100.00;102681.22;2058481;69;28485;-71
2022/08/10 05:16:54;;;;;;;63.10;58.90;;;;;;;15.58;100.00;102695.20;1980109;72;26692;-72
2022/08/10 05:19:25;;;;;;;60.63;56.53;;;;;;;15.57;100.00;102699.99;1980043;72;26833;-71
2022/08/10 05:21:55;;;;;;;59.80;55.63;;;;;;;15.63;100.00;102696.08;1979997;72;26666;-72
2022/08/10 05:24:25;;;;;;;61.17;56.63;;;;;;;15.71;100.00;102705.91;1979960;72;26318;-72
2022/08/10 05:26:55;;;;;;;59.90;55.80;;;;;;;15.97;100.00;102700.66;1979973;72;26689;-71
2022/08/10 05:29:25;;;;;;;61.50;57.10;;;;;;;15.86;100.00;102701.77;1979948;72;26750;-71
2022/08/10 05:31:56;;;;;;;63.47;58.87;;;;;;;15.82;100.00;102697.84;1979976;72;26763;-72
2022/08/10 05:34:28;;;;;;;61.83;57.23;;;;;;;15.90;100.00;102702.34;1980107;72;26726;-72
2022/08/10 05:37:00;;;;;;;63.53;58.93;;;;;;;15.99;100.00;102703.20;1980148;72;26677;-72
2022/08/10 05:39:31;;;;;;;66.30;61.70;;;;;;;16.06;100.00;102706.57;1979940;72;26753;-72
2022/08/10 05:42:03;;;;;;;67.10;62.60;;;;;;;16.23;100.00;102706.61;1979966;72;26813;-71
2022/08/10 05:44:33;;;;;;;67.17;62.67;;;;;;;16.18;100.00;102708.00;1980061;72;26209;-72
2022/08/10 05:47:05;;;;;;;68.07;63.67;;;;;;;16.20;100.00;102709.13;1979998;72;26295;-72
2022/08/10 05:49:36;;;;;;;67.33;62.60;;;;;;;16.31;100.00;102713.63;1947213;72;26253;-71
2022/08/10 05:52:07;;;;;;;66.93;62.23;;;;;;;16.39;100.00;102717.27;1944986;73;26247;-71
2022/08/10 05:54:38;;;;;;;65.07;60.47;;;;;;;16.45;100.00;102716.17;1909516;75;26716;-71
2022/08/10 05:57:09;;;;;;;63.13;58.97;;;;;;;16.37;100.00;102721.78;1892806;76;26205;-71
2022/08/10 06:02:42;;;;;;;66.30;61.73;;;;;;;16.53;100.00;102714.20;2058073;69;28049;-73
2022/08/10 06:05:14;;;;;;;67.20;62.50;;;;;;;16.67;100.00;102725.20;1980131;72;26308;-73
2022/08/10 06:07:48;;;;;;;65.07;60.50;;;;;;;16.87;100.00;102720.68;1980077;72;26268;-74
2022/08/10 06:10:20;;;;;;;64.67;60.30;;;;;;;16.78;100.00;102729.67;1943874;74;26328;-73
2022/08/10 06:15:43;;;;;;;67.27;62.77;;;;;;;16.93;100.00;102725.18;1942679;74;24641;-74
2022/08/10 06:18:14;;;;;;;65.13;60.33;;;;;;;16.94;100.00;102723.50;1983492;72;26222;-73
2022/08/10 06:20:47;;;;;;;64.93;60.10;;;;;;;17.03;100.00;102719.56;1980025;72;26186;-72
2022/08/10 06:23:17;;;;;;;62.63;58.27;;;;;;;17.14;100.00;102716.44;1979820;72;26725;-73
2022/08/10 06:25:48;;;;;;;65.57;60.77;;;;;;;17.37;100.00;102718.36;1979829;72;26304;-73
2022/08/10 06:28:21;;;;;;;64.47;59.37;;;;;;;17.36;100.00;102714.70;1979907;72;26701;-72
2022/08/10 06:30:53;;;;;;;63.53;59.13;;;;;;;17.48;100.00;102703.13;1979854;72;26173;-72
2022/08/10 06:33:26;;;;;;;64.73;60.23;;;;;;;17.63;100.00;102702.53;1979922;72;26690;-72
2022/08/10 06:35:58;;;;;;;62.10;57.73;;;;;;;17.63;100.00;102702.53;1979790;72;25281;-73
2022/08/10 06:38:32;;;;;;;62.50;58.07;;;;;;;17.78;100.00;102703.03;1979823;72;24474;-73
2022/08/10 06:41:05;;;;;;;64.87;60.37;;;;;;;17.84;100.00;102699.64;1979899;72;26336;-73
2022/08/10 06:43:38;;;;;;;66.33;62.00;;;;;;;17.97;100.00;102704.03;1979944;72;26228;-73
2022/08/10 06:46:11;;;;;;;66.90;62.60;;;;;;;17.97;100.00;102704.03;1979911;72;24237;-73
2022/08/10 06:51:45;;;;;;;68.23;63.27;;;;;;;18.15;100.00;102694.93;2057985;69;28047;-72
2022/08/10 06:54:17;;;;;;;68.10;63.20;;;;;;;18.29;100.00;102700.75;2024159;71;24228;-72
2022/08/10 06:56:48;;;;;;;68.93;64.23;;;;;;;18.35;100.00;102702.41;2024072;70;24216;-72
2022/08/10 06:59:22;;;;;;;68.10;63.47;;;;;;;18.49;100.00;102698.33;1943195;73;24229;-72
2022/08/10 07:01:55;;;;;;;67.77;63.23;;;;;;;18.60;100.00;102707.02;1983558;72;24224;-71
2022/08/10 07:04:29;;;;;;;72.37;67.30;;;;;;;18.60;100.00;102708.42;1980077;72;24240;-72
2022/08/10 07:07:02;;;;;;;71.97;67.37;;;;;;;18.63;100.00;102707.27;1979963;72;26274;-72
2022/08/10 07:09:35;;;;;;;70.13;65.73;;;;;;;18.62;100.00;102704.73;1979835;72;26801;-71
2022/08/10 07:12:09;;;;;;;71.53;66.37;;;;;;;18.74;100.00;102705.78;1944876;74;24164;-72
2022/08/10 07:14:41;;;;;;;70.83;66.33;;;;;;;18.81;100.00;102702.88;1942292;73;24160;-71
2022/08/10 07:17:13;;;;;;;71.13;66.50;;;;;;;18.96;100.00;102684.98;1967488;72;26403;-72
2022/08/10 07:19:46;;;;;;;71.70;66.80;;;;;;;19.07;100.00;102692.20;1965720;73;24169;-72
2022/08/10 07:22:18;;;;;;;71.73;66.93;;;;;;;19.08;100.00;102688.26;1965814;72;24672;-73
2022/08/10 07:24:49;;;;;;;71.03;66.47;;;;;;;19.17;100.00;102690.66;1966181;72;24165;-73
2022/08/10 07:27:21;;;;;;;68.50;63.87;;;;;;;19.26;100.00;102687.47;2010301;71;24159;-73
2022/08/10 07:29:53;;;;;;;68.37;63.67;;;;;;;19.36;100.00;102685.95;2009986;71;24236;-73
2022/08/10 07:32:25;;;;;;;67.13;62.73;;;;;;;19.52;100.00;102689.44;1929706;73;24183;-72
2022/08/10 07:34:58;;;;;;;69.13;64.73;;;;;;;19.67;100.00;102683.63;1959923;72;24105;-73
2022/08/10 07:37:30;;;;;;;69.93;65.17;;;;;;;19.49;100.00;102624.66;1965835;73;26322;-73
2022/08/10 07:40:02;;;;;;;72.43;67.90;;;;;;;19.84;100.00;102685.36;1965989;72;24165;-73
2022/08/10 07:42:36;;;;;;;74.23;69.37;;;;;;;19.97;100.00;102680.95;1965726;73;24521;-72
2022/08/10 07:45:08;;;;;;;74.43;69.63;;;;;;;20.07;100.00;102682.19;1966157;72;24168;-72
2022/08/10 07:50:40;;;;;;;69.67;65.37;;;;;;;20.52;100.00;102672.77;2058336;69;26018;-74
2022/08/10 07:53:14;;;;;;;68.43;63.63;;;;;;;20.68;100.00;102682.08;1980185;72;24168;-73
2022/08/10 07:55:46;;;;;;;68.37;63.77;;;;;;;21.01;100.00;102673.59;1979837;72;24234;-75
2022/08/10 07:58:19;;;;;;;64.70;60.43;;;;;;;21.10;100.00;102676.77;1980012;72;24152;-75
2022/08/10 08:00:49;;;;;;;67.10;62.67;;;;;;;;;;1979967;72;24165;-74
2022/08/10 08:03:23;;;;;;;66.00;61.60;;;;;;;21.38;100.00;102672.02;1980074;72;24177;-74
2022/08/10 08:05:54;;;;;;;65.97;61.57;;;;;;;21.50;100.00;102663.84;1979933;72;24116;-75
2022/08/10 08:08:26;;;;;;;66.23;61.80;;;;;;;21.68;100.00;102669.11;1979920;72;24266;-75
2022/08/10 08:10:59;;;;;;;63.03;59.00;;;;;;;21.86;100.00;102663.90;1979975;72;24181;-75
2022/08/10 08:13:31;;;;;;;64.47;60.50;;;;;;;21.96;100.00;102661.42;1979988;72;24552;-75
2022/08/10 08:16:04;;;;;;;61.15;57.45;;;;;;;22.12;100.00;102664.98;1979977;72;24206;-76
2022/08/10 08:18:35;;;;;;;61.07;57.03;;;;;;;22.36;100.00;102665.27;1980051;72;24156;-75
2022/08/10 08:21:07;;;;;;;60.83;57.13;;;;;;;22.44;100.00;102660.25;1979978;72;24167;-75
2022/08/10 08:23:39;;;;;;;56.53;53.17;;;;;;;22.47;100.00;102663.84;1980039;72;24623;-75
2022/08/10 08:26:11;;;;;;;60.55;56.88;;;;;;;22.67;100.00;102660.52;1980048;72;24234;-75
2022/08/10 08:28:44;;;;;;;54.80;51.43;;;;;;;22.74;100.00;102654.41;1979928;72;24161;-75
2022/08/10 08:31:16;;;;;;;57.83;54.23;;;;;;;22.87;100.00;102656.31;1980007;72;24168;-75
2022/08/10 08:33:48;;;;;;;56.18;52.98;;;;;;;23.02;100.00;102650.22;1944960;74;24160;-75
2022/08/10 08:36:20;;;;;;;57.23;54.13;;;;;;;23.17;100.00;102655.47;1944931;73;24187;-75
2022/08/10 08:38:52;;;;;;;52.93;49.93;;;;;;;23.14;100.00;102651.30;1944858;74;24614;-75
2022/08/10 08:41:32;;;;;;;52.27;49.38;;;;;;;23.20;100.00;102646.30;1944813;74;24175;-75
2022/08/10 08:44:08;;;;;;;53.52;50.38;;;;;;;23.28;100.00;102642.66;1943756;74;24598;-75
2022/08/10 08:50:27;;;;;;;50.65;47.78;;;;;;;23.61;100.00;102632.38;2058175;69;25934;-74
2022/08/10 08:53:04;;;;;;;50.30;47.27;;;;;;;23.66;100.00;102627.35;2024115;70;24138;-75
2022/08/10 08:55:44;;;;;;;47.13;44.40;;;;;;;23.64;100.00;102626.86;2023358;71;24155;-75
2022/08/10 08:58:54;;;;;;;47.47;44.97;;;;;;;23.66;100.00;102622.29;1925727;74;24281;-75
2022/08/10 09:04:49;;;;;;;44.83;42.10;;;;;;;23.93;100.00;102614.28;2009199;71;30938;-74
2022/08/10 09:10:39;;;;;;;42.73;40.43;;;;;;;24.00;100.00;102610.97;2058063;69;25916;-75
2022/08/10 09:13:15;;;;;;;41.05;38.65;;;;;;;24.00;100.00;102611.77;2024166;70;25456;-75
2022/08/10 09:15:51;;;;;;;39.90;37.45;;;;;;;24.01;100.00;102604.94;1943222;73;24187;-75
2022/08/10 09:18:25;;;;;;;40.08;37.80;;;;;;;24.19;100.00;102600.12;1925445;74;24152;-75
2022/08/10 09:20:59;;;;;;;40.70;38.42;;;;;;;24.21;100.00;102591.27;1979968;72;24160;-75
2022/08/10 09:23:34;;;;;;;39.23;36.93;;;;;;;24.39;100.00;102597.16;1980065;72;24168;-75
2022/08/10 09:26:07;;;;;;;40.48;38.15;;;;;;;24.57;100.00;102590.85;1979813;72;24109;-75
2022/08/10 09:28:40;;;;;;;36.70;34.70;;;;;;;24.34;100.00;102598.77;1979256;72;24703;-75
2022/08/10 09:31:13;;;;;;;37.08;34.67;;;;;;;24.49;100.00;102597.65;1979891;72;24169;-75
2022/08/10 09:33:49;;;;;;;37.08;34.83;;;;;;;24.57;100.00;102595.95;1944875;74;24604;-75
2022/08/10 09:36:25;;;;;;;37.55;35.30;;;;;;;24.69;100.00;102600.34;1944711;74;24124;-75
2022/08/10 09:39:00;;;;;;;30.35;28.65;;;;;;;24.68;100.00;102592.17;1944840;73;24273;-75
2022/08/10 09:41:38;;;;;;;29.85;28.15;;;;;;;24.81;100.00;102585.44;1943659;74;24196;-75
2022/08/10 09:44:14;;;;;;;28.95;27.35;;;;;;;24.70;100.00;102581.28;1944945;74;24269;-74
2022/08/10 09:46:53;;;;;;;24.55;23.35;;;;;;;24.79;100.00;102583.52;1979958;72;24634;-74
2022/08/10 09:52:31;;;;;;;22.93;21.73;;;;;;;25.01;100.00;102575.34;2047301;69;26176;-73
2022/08/10 09:58:12;;;;;;;20.92;19.67;;;;;;;24.87;100.00;102569.88;2058020;69;26094;-74
2022/08/10 10:00:46;;;;;;;20.75;19.55;;;;;;;24.83;100.00;102564.60;2023493;71;24487;-75
2022/08/10 10:03:20;;;;;;;20.45;19.25;;;;;;;24.86;100.00;102563.94;1925845;74;24184;-75
2022/08/10 10:05:56;;;;;;;19.70;18.67;;;;;;;24.81;100.00;102557.86;1979640;72;24156;-75
2022/08/10 10:08:31;;;;;;;19.37;18.37;;;;;;;24.91;100.00;102559.49;1979717;72;24694;-75
2022/08/10 10:11:10;;;;;;;18.77;17.75;;;;;;;25.08;100.00;102557.14;1980059;72;24695;-75
2022/08/10 10:13:46;;;;;;;17.50;16.50;;;;;;;25.21;100.00;102553.23;1980144;72;24205;-75
2022/08/10 10:16:31;;;;;;;17.92;16.80;;;;;;;25.29;100.00;102549.49;1979394;72;24194;-74
2022/08/10 10:19:07;;;;;;;16.87;15.98;;;;;;;25.10;100.00;102546.28;1979300;72;24283;-75
2022/08/10 10:21:44;;;;;;;15.95;15.15;;;;;;;24.97;100.00;102541.66;1976914;72;24323;-75
2022/08/10 10:24:20;;;;;;;15.90;15.10;;;;;;;25.14;100.00;102546.67;1980094;72;24175;-75
2022/08/10 10:26:54;;;;;;;14.75;14.05;;;;;;;24.82;100.00;102541.02;1980057;72;24445;-75
2022/08/10 10:29:33;;;;;;;14.70;14.00;;;;;;;25.12;100.00;102541.90;1979935;72;24186;-75
2022/08/10 10:32:06;;;;;;;14.33;13.62;;;;;;;25.17;100.00;102533.17;1976501;72;24153;-75
2022/08/10 10:34:40;;;;;;;13.93;13.22;;;;;;;25.06;100.00;102537.60;1980118;72;24155;-75
2022/08/10 10:37:12;;;;;;;14.10;13.40;;;;;;;25.10;100.00;102534.31;1977453;72;24183;-75
2022/08/10 10:39:45;;;;;;;13.40;12.60;;;;;;;25.09;100.00;102536.07;1979914;72;24192;-75
2022/08/10 10:42:21;;;;;;;13.22;12.53;;;;;;;25.39;100.00;102534.30;1979865;72;24182;-75
2022/08/10 10:44:55;;;;;;;13.10;12.35;;;;;;;25.22;100.00;102537.84;1979338;72;24238;-75
2022/08/10 10:47:45;;;;;;;12.98;12.20;;;;;;;25.10;100.00;102534.91;1978417;72;24145;-75
2022/08/10 10:50:18;;;;;;;13.85;12.95;;;;;;;25.27;100.00;102529.94;1977984;72;24163;-75
2022/08/10 10:52:53;;;;;;;12.93;12.25;;;;;;;25.47;100.00;102535.41;1977816;72;24382;-75
2022/08/10 10:55:28;;;;;;;13.05;12.40;;;;;;;25.41;100.00;102526.00;1977154;72;24659;-76
2022/08/10 10:58:01;;;;;;;12.63;12.00;;;;;;;25.58;100.00;102536.70;1977959;72;24225;-75
2022/08/10 11:00:37;;;;;;;12.23;11.53;;;;;;;25.54;100.00;102529.20;1977627;72;24284;-76
2022/08/10 11:03:35;;;;;;;12.20;11.50;;;;;;;25.42;100.00;102524.80;1978041;72;24531;-75
2022/08/10 11:06:11;;;;;;;12.23;11.53;;;;;;;25.50;100.00;102523.93;1978034;72;24455;-75
2022/08/10 11:08:45;;;;;;;12.30;11.70;;;;;;;25.44;100.00;102518.19;1977194;72;24163;-75
2022/08/10 11:11:18;;;;;;;12.85;11.85;;;;;;;25.51;100.00;102518.46;1977391;72;24174;-75
2022/08/10 11:13:53;;;;;;;12.07;11.48;;;;;;;25.28;100.00;102519.40;1976963;72;24167;-75
2022/08/10 11:16:27;;;;;;;11.65;11.05;;;;;;;25.34;100.00;102509.47;1976018;72;24283;-75
2022/08/10 11:19:01;;;;;;;11.93;11.22;;;;;;;25.32;100.00;102505.56;1977142;72;24182;-75
2022/08/10 11:21:39;;;;;;;11.40;10.90;;;;;;;25.44;100.00;102506.22;1976535;72;25253;-75
2022/08/10 11:24:14;;;;;;;11.53;11.03;;;;;;;25.36;100.00;102502.27;1977433;72;24244;-75
2022/08/10 11:26:48;;;;;;;11.48;10.75;;;;;;;25.55;100.00;102503.81;1977259;72;24178;-75
2022/08/10 11:29:22;;;;;;;11.25;10.65;;;;;;;25.82;100.00;102504.67;1942745;74;24204;-75
2022/08/10 11:31:57;;;;;;;11.25;10.72;;;;;;;25.75;100.00;102498.13;1942798;74;24257;-75
2022/08/10 11:34:33;;;;;;;11.40;10.90;;;;;;;25.87;100.00;102495.08;1942549;74;24276;-75
2022/08/10 11:37:11;;;;;;;11.33;10.63;;;;;;;25.64;100.00;102493.19;1981243;72;24206;-75
2022/08/10 11:39:46;;;;;;;11.20;10.70;;;;;;;25.73;100.00;102487.67;1942503;74;24208;-76
2022/08/10 11:42:22;;;;;;;10.63;10.20;;;;;;;25.74;100.00;102485.66;1981314;72;25251;-75
2022/08/10 11:44:56;;;;;;;11.25;10.65;;;;;;;26.20;100.00;102483.95;1942508;74;24657;-75
2022/08/10 11:47:29;;;;;;;11.70;11.00;;;;;;;25.98;100.00;102487.75;1942298;74;24187;-76
2022/08/10 11:53:04;;;;;;;11.50;10.80;;;;;;;25.89;100.00;102476.45;2058104;69;26111;-76
2022/08/10 11:55:36;;;;;;;11.00;10.50;;;;;;;25.98;100.00;102476.37;2023507;71;24208;-76
2022/08/10 12:01:01;;;;;;;10.80;10.15;;;;;;;26.23;100.00;102474.69;2024068;70;24223;-76
2022/08/10 12:03:35;;;;;;;11.43;10.82;;;;;;;25.92;100.00;102476.36;1925745;74;24123;-76
2022/08/10 12:06:12;;;;;;;10.58;10.08;;;;;;;25.57;100.00;102475.84;1948089;73;24169;-76
2022/08/10 12:08:43;;;;;;;10.43;10.00;;;;;;;25.58;100.00;102473.25;1947993;73;24693;-76
2022/08/10 12:11:16;;;;;;;11.28;10.68;;;;;;;25.82;100.00;102470.50;1948035;73;24266;-76
2022/08/10 12:13:51;;;;;;;10.65;10.08;;;;;;;26.01;100.00;102462.28;1948062;73;24121;-76
2022/08/10 12:16:25;;;;;;;10.55;9.95;;;;;;;26.24;100.00;102458.43;1947995;73;24245;-74
2022/08/10 12:18:58;;;;;;;10.82;10.40;;;;;;;25.71;100.00;102453.04;1947935;73;26725;-74
2022/08/10 12:21:33;;;;;;;10.68;10.18;;;;;;;25.84;100.00;102453.30;1947973;73;24673;-75
2022/08/10 12:24:06;;;;;;;11.30;10.70;;;;;;;25.99;100.00;102452.41;1947979;73;26719;-75
2022/08/10 12:26:39;;;;;;;11.20;10.55;;;;;;;26.21;100.00;102450.59;1948145;73;24195;-75
2022/08/10 12:29:13;;;;;;;11.08;10.50;;;;;;;25.69;100.00;102447.44;1948177;73;25336;-75
2022/08/10 12:31:47;;;;;;;10.78;10.25;;;;;;;25.58;100.00;102451.91;1947808;73;24666;-75